sensor_id;sensor_type;location;lat;lon;timestamp;pressure;altitude;pressure_sealevel;temperature;humidity
25759;BME280;13604;52.496;13.456;2023-02-19T00:01:37;101046.91;;;4.22;100.00
25759;BME280;13604;52.496;13.456;2023-02-19T00:04:14;101045.38;;;4.24;100.00
25759;BME280;13604;52.496;13.456;2023-02-19T00:06:40;101037.03;;;4.17;100.00
25759;BME280;13604;52.496;13.456;2023-02-19T00:09:06;101047.94;;;4.24;100.00
25759;BME280;13604;52.496;13.456;2023-02-19T00:11:33;100982.28;;;3.85;100.00
25759;BME280;13604;52.496;13.456;2023-02-19T00:13:59;101052.50;;;4.17;100.00
25759;BME280;13604;52.496;13.456;2023-02-19T00:16:26;101047.59;;;4.20;100.00
25759;BME280;13604;52.496;13.456;2023-02-19T00:18:54;101027.19;;;4.11;100.00
25759;BME280;13604;52.496;13.456;2023-02-19T00:21:20;101041.75;;;4.22;100.00
25759;BME280;13604;52.496;13.456;2023-02-19T00:23:50;101042.78;;;4.24;100.00
25759;BME280;13604;52.496;13.456;2023-02-19T00:26:16;101041.09;;;4.25;100.00
25759;BME280;13604;52.496;13.456;2023-02-19T00:28:41;101026.16;;;4.21;100.00
25759;BME280;13604;52.496;13.456;2023-02-19T00:33:46;101016.09;;;4.24;100.00
25759;BME280;13604;52.496;13.456;2023-02-19T00:36:13;101026.16;;;4.21;100.00
25759;BME280;13604;52.496;13.456;2023-02-19T00:38:39;101006.69;;;4.24;100.00
25759;BME280;13604;52.496;13.456;2023-02-19T00:41:06;101010.16;;;4.25;100.00
25759;BME280;13604;52.496;13.456;2023-02-19T00:46:17;101016.31;;;4.27;100.00
25759;BME280;13604;52.496;13.456;2023-02-19T00:48:43;101019.59;;;4.24;100.00
25759;BME280;13604;52.496;13.456;2023-02-19T00:51:09;101018.00;;;4.27;100.00
25759;BME280;13604;52.496;13.456;2023-02-19T00:53:34;101020.00;;;4.31;100.00
25759;BME280;13604;52.496;13.456;2023-02-19T00:55:59;101014.09;;;4.32;100.00
25759;BME280;13604;52.496;13.456;2023-02-19T00:58:25;101017.44;;;4.31;100.00
25759;BME280;13604;52.496;13.456;2023-02-19T01:00:50;100996.25;;;4.23;100.00
25759;BME280;13604;52.496;13.456;2023-02-19T01:03:15;101006.34;;;4.32;100.00
25759;BME280;13604;52.496;13.456;2023-02-19T01:05:40;101001.19;;;4.32;100.00
25759;BME280;13604;52.496;13.456;2023-02-19T01:08:06;100979.88;;;4.22;100.00
25759;BME280;13604;52.496;13.456;2023-02-19T01:10:31;101001.66;;;4.38;100.00
25759;BME280;13604;52.496;13.456;2023-02-19T01:12:56;101006.81;;;4.38;100.00
25759;BME280;13604;52.496;13.456;2023-02-19T01:15:22;101000.19;;;4.41;100.00
25759;BME280;13604;52.496;13.456;2023-02-19T01:17:47;100999.19;;;4.39;100.00
25759;BME280;13604;52.496;13.456;2023-02-19T01:20:12;100979.56;;;4.30;100.00
25759;BME280;13604;52.496;13.456;2023-02-19T01:22:38;100975.75;;;4.36;100.00
25759;BME280;13604;52.496;13.456;2023-02-19T01:25:03;100986.72;;;4.46;100.00
25759;BME280;13604;52.496;13.456;2023-02-19T01:27:28;100973.19;;;4.36;100.00
25759;BME280;13604;52.496;13.456;2023-02-19T01:29:54;100960.63;;;4.41;100.00
25759;BME280;13604;52.496;13.456;2023-02-19T01:32:19;100942.66;;;4.31;100.00
25759;BME280;13604;52.496;13.456;2023-02-19T01:34:44;100956.13;;;4.38;100.00
25759;BME280;13604;52.496;13.456;2023-02-19T01:37:10;100942.47;;;4.39;100.00
25759;BME280;13604;52.496;13.456;2023-02-19T01:39:37;100943.34;;;4.40;100.00
25759;BME280;13604;52.496;13.456;2023-02-19T01:42:04;100944.94;;;4.38;100.00
25759;BME280;13604;52.496;13.456;2023-02-19T01:46:57;100939.88;;;4.28;100.00
25759;BME280;13604;52.496;13.456;2023-02-19T01:49:27;100935.94;;;4.21;100.00
25759;BME280;13604;52.496;13.456;2023-02-19T01:51:58;100956.56;;;4.21;100.00
25759;BME280;13604;52.496;13.456;2023-02-19T01:54:27;100938.63;;;4.22;100.00
25759;BME280;13604;52.496;13.456;2023-02-19T01:56:56;100930.00;;;4.10;100.00
25759;BME280;13604;52.496;13.456;2023-02-19T01:59:22;100937.97;;;4.25;100.00
25759;BME280;13604;52.496;13.456;2023-02-19T02:01:48;100924.38;;;4.16;100.00
25759;BME280;13604;52.496;13.456;2023-02-19T02:04:14;100932.00;;;4.14;100.00
25759;BME280;13604;52.496;13.456;2023-02-19T02:06:52;100939.31;;;4.08;100.00
25759;BME280;13604;52.496;13.456;2023-02-19T02:09:24;100895.81;;;3.89;100.00
25759;BME280;13604;52.496;13.456;2023-02-19T02:12:09;100920.47;;;3.97;100.00
25759;BME280;13604;52.496;13.456;2023-02-19T02:14:36;100922.16;;;3.97;100.00
25759;BME280;13604;52.496;13.456;2023-02-19T02:17:25;100922.28;;;3.98;100.00
25759;BME280;13604;52.496;13.456;2023-02-19T02:20:26;100918.22;;;4.02;100.00
25759;BME280;13604;52.496;13.456;2023-02-19T02:31:12;100922.56;;;3.79;100.00
25759;BME280;13604;52.496;13.456;2023-02-19T02:33:52;100931.97;;;3.79;100.00
25759;BME280;13604;52.496;13.456;2023-02-19T02:36:30;100899.47;;;3.57;100.00
25759;BME280;13604;52.496;13.456;2023-02-19T02:38:56;100891.25;;;3.51;100.00
25759;BME280;13604;52.496;13.456;2023-02-19T02:41:23;100922.09;;;3.73;100.00
25759;BME280;13604;52.496;13.456;2023-02-19T02:43:49;100918.16;;;3.66;100.00
25759;BME280;13604;52.496;13.456;2023-02-19T02:46:19;100915.28;;;3.74;100.00
25759;BME280;13604;52.496;13.456;2023-02-19T02:48:49;100914.69;;;3.66;100.00
25759;BME280;13604;52.496;13.456;2023-02-19T02:54:06;100900.44;;;3.47;100.00
25759;BME280;13604;52.496;13.456;2023-02-19T02:56:51;100900.78;;;3.52;100.00
25759;BME280;13604;52.496;13.456;2023-02-19T02:59:19;100929.69;;;3.60;100.00
25759;BME280;13604;52.496;13.456;2023-02-19T03:01:53;100932.38;;;3.61;100.00
25759;BME280;13604;52.496;13.456;2023-02-19T03:04:58;100910.03;;;3.38;100.00
25759;BME280;13604;52.496;13.456;2023-02-19T03:10:17;100914.41;;;3.39;100.00
25759;BME280;13604;52.496;13.456;2023-02-19T03:12:44;100934.03;;;3.49;100.00
25759;BME280;13604;52.496;13.456;2023-02-19T03:15:37;100915.13;;;3.26;100.00
25759;BME280;13604;52.496;13.456;2023-02-19T03:18:25;100925.56;;;3.28;100.00
25759;BME280;13604;52.496;13.456;2023-02-19T03:21:11;100940.31;;;3.30;100.00
25759;BME280;13604;52.496;13.456;2023-02-19T03:23:38;100943.56;;;3.28;100.00
25759;BME280;13604;52.496;13.456;2023-02-19T03:26:23;100940.47;;;3.10;100.00
25759;BME280;13604;52.496;13.456;2023-02-19T03:28:51;100954.69;;;3.17;100.00
25759;BME280;13604;52.496;13.456;2023-02-19T03:31:37;100956.91;;;3.12;100.00
25759;BME280;13604;52.496;13.456;2023-02-19T03:34:08;100941.84;;;2.94;100.00
25759;BME280;13604;52.496;13.456;2023-02-19T03:36:41;100962.50;;;3.06;100.00
25759;BME280;13604;52.496;13.456;2023-02-19T03:39:08;100953.41;;;3.00;100.00
25759;BME280;13604;52.496;13.456;2023-02-19T03:41:55;100944.69;;;2.87;100.00
25759;BME280;13604;52.496;13.456;2023-02-19T03:47:04;100962.13;;;2.69;100.00
25759;BME280;13604;52.496;13.456;2023-02-19T03:49:44;100944.59;;;2.43;100.00
25759;BME280;13604;52.496;13.456;2023-02-19T03:52:22;100946.47;;;2.34;100.00
25759;BME280;13604;52.496;13.456;2023-02-19T03:55:02;100945.31;;;2.30;100.00
25759;BME280;13604;52.496;13.456;2023-02-19T03:57:43;100936.84;;;2.21;100.00
25759;BME280;13604;52.496;13.456;2023-02-19T04:00:21;100979.06;;;2.35;100.00
25759;BME280;13604;52.496;13.456;2023-02-19T04:05:28;100954.34;;;2.05;100.00
25759;BME280;13604;52.496;13.456;2023-02-19T04:07:58;100972.31;;;2.15;100.00
25759;BME280;13604;52.496;13.456;2023-02-19T04:10:25;100984.91;;;2.12;100.00
25759;BME280;13604;52.496;13.456;2023-02-19T04:13:00;100971.06;;;1.99;100.00
25759;BME280;13604;52.496;13.456;2023-02-19T04:15:29;100984.13;;;2.13;100.00
25759;BME280;13604;52.496;13.456;2023-02-19T04:17:58;100984.28;;;2.04;100.00
25759;BME280;13604;52.496;13.456;2023-02-19T04:20:27;100982.59;;;2.05;100.00
25759;BME280;13604;52.496;13.456;2023-02-19T04:22:54;100985.94;;;2.03;100.00
25759;BME280;13604;52.496;13.456;2023-02-19T04:25:21;100972.31;;;1.84;100.00
25759;BME280;13604;52.496;13.456;2023-02-19T04:27:47;100989.13;;;1.91;100.00
25759;BME280;13604;52.496;13.456;2023-02-19T04:30:13;100970.91;;;1.67;100.00
25759;BME280;13604;52.496;13.456;2023-02-19T04:32:38;100997.25;;;1.95;100.00
25759;BME280;13604;52.496;13.456;2023-02-19T04:35:04;100986.97;;;1.85;100.00
25759;BME280;13604;52.496;13.456;2023-02-19T04:37:29;101000.44;;;1.82;100.00
25759;BME280;13604;52.496;13.456;2023-02-19T04:39:54;101005.22;;;1.78;100.00
25759;BME280;13604;52.496;13.456;2023-02-19T04:42:20;101002.13;;;1.72;100.00
25759;BME280;13604;52.496;13.456;2023-02-19T04:44:45;101014.22;;;1.73;100.00
25759;BME280;13604;52.496;13.456;2023-02-19T04:47:10;101014.97;;;1.72;100.00
25759;BME280;13604;52.496;13.456;2023-02-19T04:49:36;101012.00;;;1.67;100.00
25759;BME280;13604;52.496;13.456;2023-02-19T04:52:01;101012.41;;;1.61;100.00
25759;BME280;13604;52.496;13.456;2023-02-19T04:54:26;101017.78;;;1.64;100.00
25759;BME280;13604;52.496;13.456;2023-02-19T04:56:52;101013.41;;;1.63;100.00
25759;BME280;13604;52.496;13.456;2023-02-19T04:59:17;101014.03;;;1.61;100.00
25759;BME280;13604;52.496;13.456;2023-02-19T05:01:42;101027.03;;;1.73;100.00
25759;BME280;13604;52.496;13.456;2023-02-19T05:04:07;101010.09;;;1.64;100.00
25759;BME280;13604;52.496;13.456;2023-02-19T05:06:33;101021.47;;;1.58;100.00
25759;BME280;13604;52.496;13.456;2023-02-19T05:08:58;101029.09;;;1.67;100.00
25759;BME280;13604;52.496;13.456;2023-02-19T05:11:24;101007.88;;;1.59;100.00
25759;BME280;13604;52.496;13.456;2023-02-19T05:13:49;101026.50;;;1.56;100.00
25759;BME280;13604;52.496;13.456;2023-02-19T05:16:15;101033.28;;;1.66;100.00
25759;BME280;13604;52.496;13.456;2023-02-19T05:18:42;101019.16;;;1.61;100.00
25759;BME280;13604;52.496;13.456;2023-02-19T05:21:08;101032.19;;;1.73;100.00
25759;BME280;13604;52.496;13.456;2023-02-19T05:23:34;101008.16;;;1.62;100.00
25759;BME280;13604;52.496;13.456;2023-02-19T05:26:07;101017.75;;;1.54;100.00
25759;BME280;13604;52.496;13.456;2023-02-19T05:28:33;101013.78;;;1.58;100.00
25759;BME280;13604;52.496;13.456;2023-02-19T05:31:04;101019.97;;;1.60;100.00
25759;BME280;13604;52.496;13.456;2023-02-19T05:33:30;101013.78;;;1.58;100.00
25759;BME280;13604;52.496;13.456;2023-02-19T05:35:55;101008.53;;;1.56;100.00
25759;BME280;13604;52.496;13.456;2023-02-19T05:38:21;101033.44;;;1.68;100.00
25759;BME280;13604;52.496;13.456;2023-02-19T05:40:47;101014.97;;;1.61;100.00
25759;BME280;13604;52.496;13.456;2023-02-19T05:43:13;101023.56;;;1.72;100.00
25759;BME280;13604;52.496;13.456;2023-02-19T05:45:38;101009.81;;;1.61;100.00
25759;BME280;13604;52.496;13.456;2023-02-19T05:48:05;101030.63;;;1.75;100.00
25759;BME280;13604;52.496;13.456;2023-02-19T05:50:32;101032.81;;;1.70;100.00
25759;BME280;13604;52.496;13.456;2023-02-19T05:52:59;101032.81;;;1.80;100.00
25759;BME280;13604;52.496;13.456;2023-02-19T05:55:25;101041.16;;;1.78;100.00
25759;BME280;13604;52.496;13.456;2023-02-19T05:57:51;101047.31;;;1.80;100.00
25759;BME280;13604;52.496;13.456;2023-02-19T06:00:18;101046.66;;;1.72;100.00
25759;BME280;13604;52.496;13.456;2023-02-19T06:02:43;101052.31;;;1.68;100.00
25759;BME280;13604;52.496;13.456;2023-02-19T06:05:09;101045.13;;;1.74;100.00
25759;BME280;13604;52.496;13.456;2023-02-19T06:07:35;101038.44;;;1.66;100.00
25759;BME280;13604;52.496;13.456;2023-02-19T06:10:00;101029.22;;;1.68;100.00
25759;BME280;13604;52.496;13.456;2023-02-19T06:12:26;101031.53;;;1.65;100.00
25759;BME280;13604;52.496;13.456;2023-02-19T06:14:51;101039.63;;;1.70;100.00
25759;BME280;13604;52.496;13.456;2023-02-19T06:17:16;101041.53;;;1.72;100.00
25759;BME280;13604;52.496;13.456;2023-02-19T06:19:42;101048.47;;;1.73;100.00
25759;BME280;13604;52.496;13.456;2023-02-19T06:22:08;101034.72;;;1.62;100.00
25759;BME280;13604;52.496;13.456;2023-02-19T06:24:33;101037.00;;;1.59;100.00
25759;BME280;13604;52.496;13.456;2023-02-19T06:26:59;101034.97;;;1.65;100.00
25759;BME280;13604;52.496;13.456;2023-02-19T06:29:25;101025.22;;;1.61;100.00
25759;BME280;13604;52.496;13.456;2023-02-19T06:31:50;101024.97;;;1.58;100.00
25759;BME280;13604;52.496;13.456;2023-02-19T06:34:15;101037.81;;;1.69;100.00
25759;BME280;13604;52.496;13.456;2023-02-19T06:36:41;101065.66;;;1.74;100.00
25759;BME280;13604;52.496;13.456;2023-02-19T06:39:06;101070.03;;;1.75;100.00
25759;BME280;13604;52.496;13.456;2023-02-19T06:41:32;101069.69;;;1.81;100.00
25759;BME280;13604;52.496;13.456;2023-02-19T06:43:57;101079.31;;;1.83;100.00
25759;BME280;13604;52.496;13.456;2023-02-19T06:46:23;101063.34;;;1.67;100.00
25759;BME280;13604;52.496;13.456;2023-02-19T06:48:48;101068.88;;;1.61;100.00
25759;BME280;13604;52.496;13.456;2023-02-19T06:51:17;101097.66;;;1.78;100.00
25759;BME280;13604;52.496;13.456;2023-02-19T06:53:51;101105.38;;;1.88;100.00
25759;BME280;13604;52.496;13.456;2023-02-19T06:56:28;101114.25;;;1.92;100.00
25759;BME280;13604;52.496;13.456;2023-02-19T06:58:55;101114.91;;;1.89;100.00
25759;BME280;13604;52.496;13.456;2023-02-19T07:01:21;101120.13;;;1.91;100.00
25759;BME280;13604;52.496;13.456;2023-02-19T07:03:47;101118.88;;;1.96;100.00
25759;BME280;13604;52.496;13.456;2023-02-19T07:06:12;101119.03;;;1.97;100.00
25759;BME280;13604;52.496;13.456;2023-02-19T07:08:38;101126.59;;;2.06;100.00
25759;BME280;13604;52.496;13.456;2023-02-19T07:11:03;101131.63;;;2.15;100.00
25759;BME280;13604;52.496;13.456;2023-02-19T07:13:29;101123.69;;;2.22;100.00
25759;BME280;13604;52.496;13.456;2023-02-19T07:15:59;101132.53;;;2.26;100.00
25759;BME280;13604;52.496;13.456;2023-02-19T07:18:25;101119.66;;;2.15;100.00
25759;BME280;13604;52.496;13.456;2023-02-19T07:20:50;101106.31;;;2.09;100.00
25759;BME280;13604;52.496;13.456;2023-02-19T07:23:15;101135.25;;;2.27;100.00
25759;BME280;13604;52.496;13.456;2023-02-19T07:25:40;101138.31;;;2.23;100.00
25759;BME280;13604;52.496;13.456;2023-02-19T07:28:06;101152.19;;;2.46;100.00
25759;BME280;13604;52.496;13.456;2023-02-19T07:30:32;101157.47;;;2.57;98.66
25759;BME280;13604;52.496;13.456;2023-02-19T07:32:57;101137.94;;;2.49;98.14
25759;BME280;13604;52.496;13.456;2023-02-19T07:35:22;101143.19;;;2.61;97.33
25759;BME280;13604;52.496;13.456;2023-02-19T07:37:47;101163.38;;;2.67;96.40
25759;BME280;13604;52.496;13.456;2023-02-19T07:40:13;101165.84;;;2.65;95.94
25759;BME280;13604;52.496;13.456;2023-02-19T07:42:38;101174.69;;;2.79;96.10
25759;BME280;13604;52.496;13.456;2023-02-19T07:45:04;101146.91;;;2.65;95.17
25759;BME280;13604;52.496;13.456;2023-02-19T07:47:29;101175.81;;;2.83;95.58
25759;BME280;13604;52.496;13.456;2023-02-19T07:49:54;101172.88;;;2.88;95.17
25759;BME280;13604;52.496;13.456;2023-02-19T07:52:20;101179.94;;;2.91;93.70
25759;BME280;13604;52.496;13.456;2023-02-19T07:54:45;101168.91;;;2.82;93.70
25759;BME280;13604;52.496;13.456;2023-02-19T07:57:10;101186.25;;;2.74;94.50
25759;BME280;13604;52.496;13.456;2023-02-19T07:59:35;101193.97;;;2.84;93.84
25759;BME280;13604;52.496;13.456;2023-02-19T08:02:01;101183.56;;;2.93;93.21
25759;BME280;13604;52.496;13.456;2023-02-19T08:04:47;101151.78;;;2.82;92.50
25759;BME280;13604;52.496;13.456;2023-02-19T08:07:13;101211.91;;;3.25;91.65
25759;BME280;13604;52.496;13.456;2023-02-19T08:09:38;101221.84;;;3.31;91.39
25759;BME280;13604;52.496;13.456;2023-02-19T08:12:03;101225.44;;;3.33;91.46
25759;BME280;13604;52.496;13.456;2023-02-19T08:14:47;101234.50;;;3.50;90.09
25759;BME280;13604;52.496;13.456;2023-02-19T08:17:13;101233.00;;;3.42;89.38
25759;BME280;13604;52.496;13.456;2023-02-19T08:19:38;101226.16;;;3.53;89.86
25759;BME280;13604;52.496;13.456;2023-02-19T08:22:03;101248.34;;;3.73;89.25
25759;BME280;13604;52.496;13.456;2023-02-19T08:24:28;101254.63;;;3.86;89.42
25759;BME280;13604;52.496;13.456;2023-02-19T08:26:55;101258.75;;;4.17;87.05
25759;BME280;13604;52.496;13.456;2023-02-19T08:29:20;101263.97;;;4.51;84.82
25759;BME280;13604;52.496;13.456;2023-02-19T08:31:45;101261.00;;;4.68;84.12
25759;BME280;13604;52.496;13.456;2023-02-19T08:34:11;101281.78;;;4.82;82.78
25759;BME280;13604;52.496;13.456;2023-02-19T08:36:36;101270.50;;;4.57;82.38
25759;BME280;13604;52.496;13.456;2023-02-19T08:39:02;101267.56;;;4.87;82.03
25759;BME280;13604;52.496;13.456;2023-02-19T08:41:27;101287.78;;;5.74;79.04
25759;BME280;13604;52.496;13.456;2023-02-19T08:43:52;101283.44;;;5.96;77.20
25759;BME280;13604;52.496;13.456;2023-02-19T08:46:18;101284.75;;;5.91;77.26
25759;BME280;13604;52.496;13.456;2023-02-19T08:48:44;101285.97;;;6.20;75.79
25759;BME280;13604;52.496;13.456;2023-02-19T08:51:10;101300.91;;;6.36;75.74
25759;BME280;13604;52.496;13.456;2023-02-19T08:53:37;101309.56;;;7.24;72.51
25759;BME280;13604;52.496;13.456;2023-02-19T08:56:14;101314.94;;;7.27;69.88
25759;BME280;13604;52.496;13.456;2023-02-19T08:58:40;101313.41;;;7.82;68.35
25759;BME280;13604;52.496;13.456;2023-02-19T09:01:09;101320.22;;;7.28;68.83
25759;BME280;13604;52.496;13.456;2023-02-19T09:03:35;101314.38;;;6.80;70.88
25759;BME280;13604;52.496;13.456;2023-02-19T09:06:01;101318.69;;;6.31;72.68
25759;BME280;13604;52.496;13.456;2023-02-19T09:08:26;101333.88;;;7.00;72.04
25759;BME280;13604;52.496;13.456;2023-02-19T09:11:02;101312.97;;;7.36;70.44
25759;BME280;13604;52.496;13.456;2023-02-19T09:13:28;101335.31;;;7.47;68.45
25759;BME280;13604;52.496;13.456;2023-02-19T09:15:55;101341.66;;;7.26;69.50
25759;BME280;13604;52.496;13.456;2023-02-19T09:18:21;101337.97;;;7.22;69.77
25759;BME280;13604;52.496;13.456;2023-02-19T09:20:46;101347.03;;;7.81;66.65
25759;BME280;13604;52.496;13.456;2023-02-19T09:23:11;101351.22;;;8.05;67.22
25759;BME280;13604;52.496;13.456;2023-02-19T09:25:37;101350.59;;;7.17;67.19
25759;BME280;13604;52.496;13.456;2023-02-19T09:28:02;101326.47;;;6.68;70.25
25759;BME280;13604;52.496;13.456;2023-02-19T09:30:27;101354.59;;;7.64;68.69
25759;BME280;13604;52.496;13.456;2023-02-19T09:32:53;101358.13;;;7.40;68.55
25759;BME280;13604;52.496;13.456;2023-02-19T09:35:18;101368.16;;;7.60;67.08
25759;BME280;13604;52.496;13.456;2023-02-19T09:37:43;101339.53;;;7.99;65.06
25759;BME280;13604;52.496;13.456;2023-02-19T09:40:09;101363.59;;;7.96;64.75
25759;BME280;13604;52.496;13.456;2023-02-19T09:42:34;101368.50;;;7.53;66.25
25759;BME280;13604;52.496;13.456;2023-02-19T09:45:00;101368.38;;;6.51;66.65
25759;BME280;13604;52.496;13.456;2023-02-19T09:47:27;101360.66;;;6.76;68.98
25759;BME280;13604;52.496;13.456;2023-02-19T09:49:57;101368.88;;;8.38;64.33
25759;BME280;13604;52.496;13.456;2023-02-19T09:52:34;101366.94;;;9.62;60.26
25759;BME280;13604;52.496;13.456;2023-02-19T09:55:12;101366.41;;;9.67;59.45
25759;BME280;13604;52.496;13.456;2023-02-19T09:57:38;101378.97;;;9.74;57.58
25759;BME280;13604;52.496;13.456;2023-02-19T10:00:12;101381.00;;;10.10;56.38
25759;BME280;13604;52.496;13.456;2023-02-19T10:02:43;101396.69;;;11.55;53.01
25759;BME280;13604;52.496;13.456;2023-02-19T10:05:11;101390.78;;;12.10;50.64
25759;BME280;13604;52.496;13.456;2023-02-19T10:07:41;101392.78;;;11.47;51.83
25759;BME280;13604;52.496;13.456;2023-02-19T10:12:42;101392.81;;;12.15;51.24
25759;BME280;13604;52.496;13.456;2023-02-19T10:15:15;101404.75;;;12.84;47.54
25759;BME280;13604;52.496;13.456;2023-02-19T10:17:41;101415.69;;;13.32;46.62
25759;BME280;13604;52.496;13.456;2023-02-19T10:20:13;101419.03;;;12.19;48.57
25759;BME280;13604;52.496;13.456;2023-02-19T10:22:39;101415.53;;;11.16;51.50
25759;BME280;13604;52.496;13.456;2023-02-19T10:25:05;101431.59;;;10.30;52.60
25759;BME280;13604;52.496;13.456;2023-02-19T10:27:30;101424.34;;;11.02;50.91
25759;BME280;13604;52.496;13.456;2023-02-19T10:29:56;101433.78;;;10.68;49.73
25759;BME280;13604;52.496;13.456;2023-02-19T10:32:24;101435.97;;;10.61;50.89
25759;BME280;13604;52.496;13.456;2023-02-19T10:35:16;101449.59;;;13.11;47.52
25759;BME280;13604;52.496;13.456;2023-02-19T10:37:44;101430.13;;;13.24;45.40
25759;BME280;13604;52.496;13.456;2023-02-19T10:40:16;101444.22;;;14.07;43.87
25759;BME280;13604;52.496;13.456;2023-02-19T10:42:47;101445.88;;;16.12;41.43
25759;BME280;13604;52.496;13.456;2023-02-19T10:45:18;101444.72;;;16.04;38.10
25759;BME280;13604;52.496;13.456;2023-02-19T10:47:46;101465.25;;;16.97;37.58
25759;BME280;13604;52.496;13.456;2023-02-19T10:50:21;101450.69;;;15.03;39.73
25759;BME280;13604;52.496;13.456;2023-02-19T10:52:54;101468.97;;;15.24;39.20
25759;BME280;13604;52.496;13.456;2023-02-19T10:57:52;101470.41;;;14.49;41.22
25759;BME280;13604;52.496;13.456;2023-02-19T11:00:23;101471.22;;;17.51;37.18
25759;BME280;13604;52.496;13.456;2023-02-19T11:03:20;101489.34;;;16.55;37.23
25759;BME280;13604;52.496;13.456;2023-02-19T11:05:53;101482.50;;;15.59;39.64
25759;BME280;13604;52.496;13.456;2023-02-19T11:08:21;101483.88;;;16.49;37.22
25759;BME280;13604;52.496;13.456;2023-02-19T11:10:48;101474.88;;;13.89;39.68
25759;BME280;13604;52.496;13.456;2023-02-19T11:13:17;101492.25;;;13.48;41.13
25759;BME280;13604;52.496;13.456;2023-02-19T11:15:50;101485.13;;;16.07;37.78
25759;BME280;13604;52.496;13.456;2023-02-19T11:18:22;101494.50;;;17.37;35.28
25759;BME280;13604;52.496;13.456;2023-02-19T11:21:05;101484.75;;;15.96;36.70
25759;BME280;13604;52.496;13.456;2023-02-19T11:23:34;101511.50;;;14.93;38.24
25759;BME280;13604;52.496;13.456;2023-02-19T11:26:02;101503.94;;;13.95;40.28
25759;BME280;13604;52.496;13.456;2023-02-19T11:28:34;101520.47;;;15.91;37.32
25759;BME280;13604;52.496;13.456;2023-02-19T11:33:59;101514.53;;;16.75;35.24
25759;BME280;13604;52.496;13.456;2023-02-19T11:36:29;101507.69;;;19.04;32.24
25759;BME280;13604;52.496;13.456;2023-02-19T11:38:56;101501.88;;;19.63;30.99
25759;BME280;13604;52.496;13.456;2023-02-19T11:44:33;101518.03;;;19.36;28.63
25759;BME280;13604;52.496;13.456;2023-02-19T11:50:12;101525.47;;;18.76;30.69
25759;BME280;13604;52.496;13.456;2023-02-19T11:55:37;101503.88;;;19.32;29.43
25759;BME280;13604;52.496;13.456;2023-02-19T11:58:38;101523.84;;;17.19;32.18
25759;BME280;13604;52.496;13.456;2023-02-19T12:04:24;101521.38;;;16.43;32.09
25759;BME280;13604;52.496;13.456;2023-02-19T12:07:18;101528.25;;;16.65;32.52
25759;BME280;13604;52.496;13.456;2023-02-19T12:13:09;101516.38;;;17.64;30.47
25759;BME280;13604;52.496;13.456;2023-02-19T12:15:53;101539.69;;;13.36;35.92
25759;BME280;13604;52.496;13.456;2023-02-19T12:18:49;101540.25;;;9.89;42.06
25759;BME280;13604;52.496;13.456;2023-02-19T12:21:26;101539.81;;;8.45;46.33
25759;BME280;13604;52.496;13.456;2023-02-19T12:24:26;101557.28;;;7.59;49.31
25759;BME280;13604;52.496;13.456;2023-02-19T12:27:27;101550.19;;;6.84;51.05
25759;BME280;13604;52.496;13.456;2023-02-19T12:30:28;101552.53;;;6.92;51.03
25759;BME280;13604;52.496;13.456;2023-02-19T12:35:46;101560.94;;;7.37;51.28
25759;BME280;13604;52.496;13.456;2023-02-19T12:43:46;101570.38;;;9.02;45.24
25759;BME280;13604;52.496;13.456;2023-02-19T12:46:24;101558.72;;;7.92;47.81
25759;BME280;13604;52.496;13.456;2023-02-19T12:48:57;101547.06;;;7.36;49.18
25759;BME280;13604;52.496;13.456;2023-02-19T12:51:44;101566.34;;;7.40;49.83
25759;BME280;13604;52.496;13.456;2023-02-19T12:54:17;101575.94;;;7.29;50.31
25759;BME280;13604;52.496;13.456;2023-02-19T12:56:50;101590.03;;;6.74;51.75
25759;BME280;13604;52.496;13.456;2023-02-19T12:59:27;101596.28;;;6.30;52.50
25759;BME280;13604;52.496;13.456;2023-02-19T13:04:27;101582.91;;;5.80;54.85
25759;BME280;13604;52.496;13.456;2023-02-19T13:07:04;101584.97;;;5.84;55.79
25759;BME280;13604;52.496;13.456;2023-02-19T13:09:38;101594.31;;;6.04;54.25
25759;BME280;13604;52.496;13.456;2023-02-19T13:12:11;101569.09;;;7.67;50.06
25759;BME280;13604;52.496;13.456;2023-02-19T13:14:44;101587.25;;;6.82;49.70
25759;BME280;13604;52.496;13.456;2023-02-19T13:17:26;101606.44;;;6.39;51.76
25759;BME280;13604;52.496;13.456;2023-02-19T13:19:57;101614.16;;;6.73;51.08
25759;BME280;13604;52.496;13.456;2023-02-19T13:25:13;101600.44;;;8.34;47.50
25759;BME280;13604;52.496;13.456;2023-02-19T13:27:56;101609.84;;;9.37;45.91
25759;BME280;13604;52.496;13.456;2023-02-19T13:30:39;101610.84;;;9.81;44.47
25759;BME280;13604;52.496;13.456;2023-02-19T13:36:24;101616.53;;;12.00;40.40
25759;BME280;13604;52.496;13.456;2023-02-19T13:38:50;101618.03;;;11.32;40.93
25759;BME280;13604;52.496;13.456;2023-02-19T13:41:26;101586.19;;;11.07;41.40
25759;BME280;13604;52.496;13.456;2023-02-19T13:43:54;101573.97;;;13.42;37.78
25759;BME280;13604;52.496;13.456;2023-02-19T13:46:20;101587.81;;;16.90;33.78
25759;BME280;13604;52.496;13.456;2023-02-19T13:48:45;101581.69;;;19.46;29.27
25759;BME280;13604;52.496;13.456;2023-02-19T14:04:44;101603.16;;;15.78;30.71
25759;BME280;13604;52.496;13.456;2023-02-19T14:25:23;101659.81;;;6.72;49.27
25759;BME280;13604;52.496;13.456;2023-02-19T14:27:52;101663.97;;;6.58;49.67
25759;BME280;13604;52.496;13.456;2023-02-19T14:30:19;101666.72;;;6.38;49.50
25759;BME280;13604;52.496;13.456;2023-02-19T14:32:46;101646.53;;;6.22;50.51
25759;BME280;13604;52.496;13.456;2023-02-19T14:35:24;101612.09;;;6.92;48.45